sensor_id;sensor_type;location;lat;lon;timestamp;P1;durP1;ratioP1;P2;durP2;ratioP2
25073;SDS011;13066;52.042;5.648;2023-08-17T00:01:11;4.75;;;2.15;;
25073;SDS011;13066;52.042;5.648;2023-08-17T00:03:39;8.50;;;2.63;;
25073;SDS011;13066;52.042;5.648;2023-08-17T00:06:07;7.68;;;2.30;;
25073;SDS011;13066;52.042;5.648;2023-08-17T00:08:35;4.35;;;2.25;;
25073;SDS011;13066;52.042;5.648;2023-08-17T00:11:03;10.55;;;2.30;;
25073;SDS011;13066;52.042;5.648;2023-08-17T00:13:31;9.80;;;2.25;;
25073;SDS011;13066;52.042;5.648;2023-08-17T00:16:00;6.05;;;2.33;;
25073;SDS011;13066;52.042;5.648;2023-08-17T00:18:28;8.02;;;2.25;;
25073;SDS011;13066;52.042;5.648;2023-08-17T00:20:56;4.60;;;1.90;;
25073;SDS011;13066;52.042;5.648;2023-08-17T00:23:24;11.13;;;2.30;;
25073;SDS011;13066;52.042;5.648;2023-08-17T00:25:52;10.48;;;2.30;;
25073;SDS011;13066;52.042;5.648;2023-08-17T00:28:20;8.70;;;2.35;;
25073;SDS011;13066;52.042;5.648;2023-08-17T00:30:48;9.98;;;2.20;;
25073;SDS011;13066;52.042;5.648;2023-08-17T00:33:17;8.68;;;2.60;;
25073;SDS011;13066;52.042;5.648;2023-08-17T00:35:46;10.52;;;2.30;;
25073;SDS011;13066;52.042;5.648;2023-08-17T00:38:14;7.90;;;2.47;;
25073;SDS011;13066;52.042;5.648;2023-08-17T00:40:42;4.18;;;2.10;;
25073;SDS011;13066;52.042;5.648;2023-08-17T00:43:13;8.13;;;2.60;;
25073;SDS011;13066;52.042;5.648;2023-08-17T00:45:41;8.07;;;1.90;;
25073;SDS011;13066;52.042;5.648;2023-08-17T00:48:12;8.02;;;2.22;;
25073;SDS011;13066;52.042;5.648;2023-08-17T00:50:41;4.20;;;2.10;;
25073;SDS011;13066;52.042;5.648;2023-08-17T00:53:09;6.63;;;2.30;;
25073;SDS011;13066;52.042;5.648;2023-08-17T00:55:40;10.68;;;2.60;;
25073;SDS011;13066;52.042;5.648;2023-08-17T00:58:07;6.35;;;2.30;;
25073;SDS011;13066;52.042;5.648;2023-08-17T01:00:36;5.97;;;2.20;;
25073;SDS011;13066;52.042;5.648;2023-08-17T01:03:04;6.72;;;2.10;;
25073;SDS011;13066;52.042;5.648;2023-08-17T01:05:32;5.72;;;2.65;;
25073;SDS011;13066;52.042;5.648;2023-08-17T01:08:01;7.00;;;2.17;;
25073;SDS011;13066;52.042;5.648;2023-08-17T01:10:30;11.82;;;2.65;;
25073;SDS011;13066;52.042;5.648;2023-08-17T01:13:05;6.57;;;2.22;;
25073;SDS011;13066;52.042;5.648;2023-08-17T01:15:37;9.27;;;2.80;;
25073;SDS011;13066;52.042;5.648;2023-08-17T01:18:10;5.30;;;2.20;;
25073;SDS011;13066;52.042;5.648;2023-08-17T01:20:43;5.20;;;2.03;;
25073;SDS011;13066;52.042;5.648;2023-08-17T01:23:13;6.35;;;2.53;;
25073;SDS011;13066;52.042;5.648;2023-08-17T01:25:41;5.88;;;2.20;;
25073;SDS011;13066;52.042;5.648;2023-08-17T01:28:09;8.80;;;2.58;;
25073;SDS011;13066;52.042;5.648;2023-08-17T01:30:39;5.82;;;2.22;;
25073;SDS011;13066;52.042;5.648;2023-08-17T01:33:10;6.10;;;2.30;;
25073;SDS011;13066;52.042;5.648;2023-08-17T01:35:41;8.50;;;2.47;;
25073;SDS011;13066;52.042;5.648;2023-08-17T01:38:16;6.68;;;2.50;;
25073;SDS011;13066;52.042;5.648;2023-08-17T01:40:46;9.32;;;2.33;;
25073;SDS011;13066;52.042;5.648;2023-08-17T01:43:15;8.52;;;2.33;;
25073;SDS011;13066;52.042;5.648;2023-08-17T01:45:44;9.50;;;2.53;;
25073;SDS011;13066;52.042;5.648;2023-08-17T01:48:12;4.82;;;2.60;;
25073;SDS011;13066;52.042;5.648;2023-08-17T01:50:40;9.57;;;2.67;;
25073;SDS011;13066;52.042;5.648;2023-08-17T01:53:08;10.73;;;2.55;;
25073;SDS011;13066;52.042;5.648;2023-08-17T01:55:39;6.28;;;2.00;;
25073;SDS011;13066;52.042;5.648;2023-08-17T01:58:07;6.95;;;2.00;;
25073;SDS011;13066;52.042;5.648;2023-08-17T02:00:35;6.13;;;2.40;;
25073;SDS011;13066;52.042;5.648;2023-08-17T02:03:03;6.60;;;2.47;;
25073;SDS011;13066;52.042;5.648;2023-08-17T02:05:31;11.10;;;2.67;;
25073;SDS011;13066;52.042;5.648;2023-08-17T02:07:59;6.07;;;2.58;;
25073;SDS011;13066;52.042;5.648;2023-08-17T02:10:27;10.02;;;2.28;;
25073;SDS011;13066;52.042;5.648;2023-08-17T02:12:56;8.82;;;2.30;;
25073;SDS011;13066;52.042;5.648;2023-08-17T02:15:38;6.30;;;2.30;;
25073;SDS011;13066;52.042;5.648;2023-08-17T02:18:06;5.88;;;2.15;;
25073;SDS011;13066;52.042;5.648;2023-08-17T02:20:35;7.20;;;2.13;;
25073;SDS011;13066;52.042;5.648;2023-08-17T02:23:03;5.40;;;1.98;;
25073;SDS011;13066;52.042;5.648;2023-08-17T02:25:31;4.65;;;2.20;;
25073;SDS011;13066;52.042;5.648;2023-08-17T02:28:03;6.60;;;1.80;;
25073;SDS011;13066;52.042;5.648;2023-08-17T02:30:32;8.25;;;2.17;;
25073;SDS011;13066;52.042;5.648;2023-08-17T02:33:00;9.27;;;2.58;;
25073;SDS011;13066;52.042;5.648;2023-08-17T02:35:28;5.68;;;1.95;;
25073;SDS011;13066;52.042;5.648;2023-08-17T02:37:56;6.82;;;2.20;;
25073;SDS011;13066;52.042;5.648;2023-08-17T02:40:24;6.70;;;2.25;;
25073;SDS011;13066;52.042;5.648;2023-08-17T02:42:52;6.63;;;2.03;;
25073;SDS011;13066;52.042;5.648;2023-08-17T02:45:23;6.13;;;2.10;;
25073;SDS011;13066;52.042;5.648;2023-08-17T02:47:51;6.68;;;2.20;;
25073;SDS011;13066;52.042;5.648;2023-08-17T02:50:19;11.00;;;2.40;;
25073;SDS011;13066;52.042;5.648;2023-08-17T02:52:47;4.85;;;2.00;;
25073;SDS011;13066;52.042;5.648;2023-08-17T02:55:15;5.63;;;2.00;;
25073;SDS011;13066;52.042;5.648;2023-08-17T02:57:43;5.60;;;2.03;;
25073;SDS011;13066;52.042;5.648;2023-08-17T03:00:11;6.90;;;2.40;;
25073;SDS011;13066;52.042;5.648;2023-08-17T03:02:41;7.93;;;2.00;;
25073;SDS011;13066;52.042;5.648;2023-08-17T03:05:09;7.65;;;2.30;;
25073;SDS011;13066;52.042;5.648;2023-08-17T03:07:38;9.30;;;2.03;;
25073;SDS011;13066;52.042;5.648;2023-08-17T03:10:07;6.30;;;2.22;;
25073;SDS011;13066;52.042;5.648;2023-08-17T03:12:35;8.55;;;2.38;;
25073;SDS011;13066;52.042;5.648;2023-08-17T03:15:04;9.48;;;2.40;;
25073;SDS011;13066;52.042;5.648;2023-08-17T03:17:34;8.85;;;2.53;;
25073;SDS011;13066;52.042;5.648;2023-08-17T03:20:04;11.40;;;2.25;;
25073;SDS011;13066;52.042;5.648;2023-08-17T03:22:33;7.65;;;2.13;;
25073;SDS011;13066;52.042;5.648;2023-08-17T03:25:01;10.93;;;2.58;;
25073;SDS011;13066;52.042;5.648;2023-08-17T03:27:30;11.48;;;2.30;;
25073;SDS011;13066;52.042;5.648;2023-08-17T03:29:58;4.25;;;1.73;;
25073;SDS011;13066;52.042;5.648;2023-08-17T03:32:26;4.25;;;2.40;;
25073;SDS011;13066;52.042;5.648;2023-08-17T03:34:54;6.35;;;2.15;;
25073;SDS011;13066;52.042;5.648;2023-08-17T03:37:24;7.03;;;2.20;;
25073;SDS011;13066;52.042;5.648;2023-08-17T03:39:52;5.03;;;2.08;;
25073;SDS011;13066;52.042;5.648;2023-08-17T03:42:20;9.90;;;2.25;;
25073;SDS011;13066;52.042;5.648;2023-08-17T03:44:48;7.65;;;2.13;;
25073;SDS011;13066;52.042;5.648;2023-08-17T03:47:17;6.90;;;1.90;;
25073;SDS011;13066;52.042;5.648;2023-08-17T03:49:45;9.77;;;2.55;;
25073;SDS011;13066;52.042;5.648;2023-08-17T03:52:13;6.80;;;2.25;;
25073;SDS011;13066;52.042;5.648;2023-08-17T03:54:42;5.82;;;2.05;;
25073;SDS011;13066;52.042;5.648;2023-08-17T03:57:10;7.78;;;2.10;;
25073;SDS011;13066;52.042;5.648;2023-08-17T03:59:38;6.25;;;2.35;;
25073;SDS011;13066;52.042;5.648;2023-08-17T04:02:06;5.57;;;2.45;;
25073;SDS011;13066;52.042;5.648;2023-08-17T04:04:34;8.10;;;2.20;;
25073;SDS011;13066;52.042;5.648;2023-08-17T04:07:02;8.90;;;2.15;;
25073;SDS011;13066;52.042;5.648;2023-08-17T04:09:30;6.78;;;1.95;;
25073;SDS011;13066;52.042;5.648;2023-08-17T04:12:01;9.25;;;2.67;;
25073;SDS011;13066;52.042;5.648;2023-08-17T04:14:33;8.10;;;2.47;;
25073;SDS011;13066;52.042;5.648;2023-08-17T04:17:01;10.20;;;2.40;;
25073;SDS011;13066;52.042;5.648;2023-08-17T04:19:30;7.43;;;2.30;;
25073;SDS011;13066;52.042;5.648;2023-08-17T04:21:58;9.80;;;2.60;;
25073;SDS011;13066;52.042;5.648;2023-08-17T04:24:26;10.15;;;2.15;;
25073;SDS011;13066;52.042;5.648;2023-08-17T04:26:54;7.32;;;2.00;;
25073;SDS011;13066;52.042;5.648;2023-08-17T04:29:23;7.35;;;2.90;;
25073;SDS011;13066;52.042;5.648;2023-08-17T04:31:52;8.82;;;2.22;;
25073;SDS011;13066;52.042;5.648;2023-08-17T04:34:20;5.68;;;2.30;;
25073;SDS011;13066;52.042;5.648;2023-08-17T04:36:48;6.25;;;2.50;;
25073;SDS011;13066;52.042;5.648;2023-08-17T04:39:16;9.77;;;2.45;;
25073;SDS011;13066;52.042;5.648;2023-08-17T04:41:44;6.85;;;2.05;;
25073;SDS011;13066;52.042;5.648;2023-08-17T04:44:17;6.93;;;2.30;;
25073;SDS011;13066;52.042;5.648;2023-08-17T04:46:46;7.57;;;2.35;;
25073;SDS011;13066;52.042;5.648;2023-08-17T04:49:14;6.30;;;2.20;;
25073;SDS011;13066;52.042;5.648;2023-08-17T04:51:42;6.07;;;1.92;;
25073;SDS011;13066;52.042;5.648;2023-08-17T04:54:10;11.25;;;2.60;;
25073;SDS011;13066;52.042;5.648;2023-08-17T04:56:38;10.13;;;2.45;;
25073;SDS011;13066;52.042;5.648;2023-08-17T04:59:06;10.13;;;2.17;;
25073;SDS011;13066;52.042;5.648;2023-08-17T05:01:34;7.00;;;2.15;;
25073;SDS011;13066;52.042;5.648;2023-08-17T05:04:09;5.88;;;2.10;;
25073;SDS011;13066;52.042;5.648;2023-08-17T05:06:37;8.80;;;2.42;;
25073;SDS011;13066;52.042;5.648;2023-08-17T05:09:05;8.02;;;2.20;;
25073;SDS011;13066;52.042;5.648;2023-08-17T05:11:34;8.82;;;2.03;;
25073;SDS011;13066;52.042;5.648;2023-08-17T05:14:01;6.90;;;2.22;;
25073;SDS011;13066;52.042;5.648;2023-08-17T05:16:30;11.40;;;2.22;;
25073;SDS011;13066;52.042;5.648;2023-08-17T05:18:58;8.93;;;2.13;;
25073;SDS011;13066;52.042;5.648;2023-08-17T05:21:28;8.73;;;2.58;;
25073;SDS011;13066;52.042;5.648;2023-08-17T05:23:56;10.38;;;2.25;;
25073;SDS011;13066;52.042;5.648;2023-08-17T05:26:25;6.03;;;1.98;;
25073;SDS011;13066;52.042;5.648;2023-08-17T05:28:53;7.75;;;2.08;;
25073;SDS011;13066;52.042;5.648;2023-08-17T05:31:23;8.52;;;2.03;;
25073;SDS011;13066;52.042;5.648;2023-08-17T05:33:52;7.95;;;2.00;;
25073;SDS011;13066;52.042;5.648;2023-08-17T05:36:23;6.63;;;2.10;;
25073;SDS011;13066;52.042;5.648;2023-08-17T05:38:52;8.85;;;2.10;;
25073;SDS011;13066;52.042;5.648;2023-08-17T05:41:20;7.80;;;2.30;;
25073;SDS011;13066;52.042;5.648;2023-08-17T05:43:48;10.77;;;2.25;;
25073;SDS011;13066;52.042;5.648;2023-08-17T05:46:16;4.35;;;1.90;;
25073;SDS011;13066;52.042;5.648;2023-08-17T05:48:45;6.15;;;2.00;;
25073;SDS011;13066;52.042;5.648;2023-08-17T05:51:13;8.07;;;2.33;;
25073;SDS011;13066;52.042;5.648;2023-08-17T05:53:41;7.07;;;2.40;;
25073;SDS011;13066;52.042;5.648;2023-08-17T05:56:10;8.07;;;2.20;;
25073;SDS011;13066;52.042;5.648;2023-08-17T05:58:38;7.13;;;2.35;;
25073;SDS011;13066;52.042;5.648;2023-08-17T06:01:07;6.68;;;2.05;;
25073;SDS011;13066;52.042;5.648;2023-08-17T06:03:36;5.57;;;2.17;;
25073;SDS011;13066;52.042;5.648;2023-08-17T06:06:04;7.47;;;2.40;;
25073;SDS011;13066;52.042;5.648;2023-08-17T06:08:33;9.35;;;2.33;;
25073;SDS011;13066;52.042;5.648;2023-08-17T06:11:01;5.22;;;2.00;;
25073;SDS011;13066;52.042;5.648;2023-08-17T06:13:30;6.28;;;2.25;;
25073;SDS011;13066;52.042;5.648;2023-08-17T06:15:58;5.10;;;2.08;;
25073;SDS011;13066;52.042;5.648;2023-08-17T06:18:26;8.18;;;2.13;;
25073;SDS011;13066;52.042;5.648;2023-08-17T06:20:54;8.55;;;2.22;;
25073;SDS011;13066;52.042;5.648;2023-08-17T06:23:22;5.38;;;2.00;;
25073;SDS011;13066;52.042;5.648;2023-08-17T06:25:51;4.78;;;1.90;;
25073;SDS011;13066;52.042;5.648;2023-08-17T06:28:18;8.90;;;2.50;;
25073;SDS011;13066;52.042;5.648;2023-08-17T06:30:48;7.05;;;2.20;;
25073;SDS011;13066;52.042;5.648;2023-08-17T06:33:19;7.70;;;2.10;;
25073;SDS011;13066;52.042;5.648;2023-08-17T06:35:48;7.85;;;2.60;;
25073;SDS011;13066;52.042;5.648;2023-08-17T06:38:16;10.95;;;2.40;;
25073;SDS011;13066;52.042;5.648;2023-08-17T06:40:44;10.60;;;2.25;;
25073;SDS011;13066;52.042;5.648;2023-08-17T06:43:13;8.23;;;2.10;;
25073;SDS011;13066;52.042;5.648;2023-08-17T06:45:44;5.10;;;2.08;;
25073;SDS011;13066;52.042;5.648;2023-08-17T06:48:13;9.98;;;2.45;;
25073;SDS011;13066;52.042;5.648;2023-08-17T06:50:41;12.10;;;2.42;;
25073;SDS011;13066;52.042;5.648;2023-08-17T06:53:09;5.90;;;2.20;;
25073;SDS011;13066;52.042;5.648;2023-08-17T06:55:37;5.60;;;2.35;;
25073;SDS011;13066;52.042;5.648;2023-08-17T06:58:05;8.45;;;2.13;;
25073;SDS011;13066;52.042;5.648;2023-08-17T07:00:33;7.05;;;2.20;;
25073;SDS011;13066;52.042;5.648;2023-08-17T07:03:02;9.02;;;2.30;;
25073;SDS011;13066;52.042;5.648;2023-08-17T07:05:32;8.77;;;2.30;;
25073;SDS011;13066;52.042;5.648;2023-08-17T07:08:00;14.43;;;2.53;;
25073;SDS011;13066;52.042;5.648;2023-08-17T07:10:28;5.65;;;2.20;;
25073;SDS011;13066;52.042;5.648;2023-08-17T07:12:56;9.18;;;2.30;;
25073;SDS011;13066;52.042;5.648;2023-08-17T07:15:24;6.45;;;2.65;;
25073;SDS011;13066;52.042;5.648;2023-08-17T07:17:52;10.57;;;2.80;;
25073;SDS011;13066;52.042;5.648;2023-08-17T07:20:21;6.97;;;2.20;;
25073;SDS011;13066;52.042;5.648;2023-08-17T07:22:50;16.27;;;2.70;;
25073;SDS011;13066;52.042;5.648;2023-08-17T07:25:18;9.38;;;2.55;;
25073;SDS011;13066;52.042;5.648;2023-08-17T07:27:46;11.98;;;2.45;;
25073;SDS011;13066;52.042;5.648;2023-08-17T07:30:14;10.57;;;2.47;;
25073;SDS011;13066;52.042;5.648;2023-08-17T07:32:42;5.90;;;2.33;;
25073;SDS011;13066;52.042;5.648;2023-08-17T07:35:10;6.57;;;2.25;;
25073;SDS011;13066;52.042;5.648;2023-08-17T07:37:38;9.95;;;2.45;;
25073;SDS011;13066;52.042;5.648;2023-08-17T07:40:08;20.70;;;3.30;;
25073;SDS011;13066;52.042;5.648;2023-08-17T07:42:36;6.32;;;2.22;;
25073;SDS011;13066;52.042;5.648;2023-08-17T07:45:05;11.23;;;3.13;;
25073;SDS011;13066;52.042;5.648;2023-08-17T07:47:34;6.43;;;2.15;;
25073;SDS011;13066;52.042;5.648;2023-08-17T07:50:03;8.95;;;2.95;;
25073;SDS011;13066;52.042;5.648;2023-08-17T07:52:31;12.77;;;3.33;;
25073;SDS011;13066;52.042;5.648;2023-08-17T07:54:59;13.23;;;3.67;;
25073;SDS011;13066;52.042;5.648;2023-08-17T07:57:29;6.45;;;3.22;;
25073;SDS011;13066;52.042;5.648;2023-08-17T07:59:57;9.25;;;3.35;;
25073;SDS011;13066;52.042;5.648;2023-08-17T08:02:25;9.00;;;3.28;;
25073;SDS011;13066;52.042;5.648;2023-08-17T08:04:53;6.47;;;3.17;;
25073;SDS011;13066;52.042;5.648;2023-08-17T08:07:21;11.45;;;3.40;;
25073;SDS011;13066;52.042;5.648;2023-08-17T08:09:48;8.05;;;3.22;;
25073;SDS011;13066;52.042;5.648;2023-08-17T08:12:16;8.82;;;3.08;;
25073;SDS011;13066;52.042;5.648;2023-08-17T08:14:45;6.88;;;3.17;;
25073;SDS011;13066;52.042;5.648;2023-08-17T08:17:14;7.88;;;3.00;;
25073;SDS011;13066;52.042;5.648;2023-08-17T08:19:42;11.35;;;4.13;;
25073;SDS011;13066;52.042;5.648;2023-08-17T08:22:11;10.88;;;2.35;;
25073;SDS011;13066;52.042;5.648;2023-08-17T08:24:39;7.40;;;2.10;;
25073;SDS011;13066;52.042;5.648;2023-08-17T08:27:10;9.00;;;2.53;;
25073;SDS011;13066;52.042;5.648;2023-08-17T08:29:38;8.40;;;2.42;;
25073;SDS011;13066;52.042;5.648;2023-08-17T08:32:08;7.70;;;2.78;;
25073;SDS011;13066;52.042;5.648;2023-08-17T08:34:36;10.23;;;2.58;;
25073;SDS011;13066;52.042;5.648;2023-08-17T08:37:04;7.63;;;2.50;;
25073;SDS011;13066;52.042;5.648;2023-08-17T08:39:32;11.77;;;2.70;;
25073;SDS011;13066;52.042;5.648;2023-08-17T08:42:00;6.57;;;2.22;;
25073;SDS011;13066;52.042;5.648;2023-08-17T08:44:28;11.52;;;2.83;;
25073;SDS011;13066;52.042;5.648;2023-08-17T08:46:56;11.55;;;2.63;;
25073;SDS011;13066;52.042;5.648;2023-08-17T08:49:25;8.95;;;2.75;;
25073;SDS011;13066;52.042;5.648;2023-08-17T08:51:54;5.60;;;2.63;;
25073;SDS011;13066;52.042;5.648;2023-08-17T08:54:26;10.57;;;2.53;;
25073;SDS011;13066;52.042;5.648;2023-08-17T08:56:54;10.40;;;2.47;;
25073;SDS011;13066;52.042;5.648;2023-08-17T08:59:26;8.60;;;2.38;;
25073;SDS011;13066;52.042;5.648;2023-08-17T09:01:55;7.30;;;2.42;;
25073;SDS011;13066;52.042;5.648;2023-08-17T09:04:24;8.52;;;2.80;;
25073;SDS011;13066;52.042;5.648;2023-08-17T09:06:54;9.75;;;3.13;;
25073;SDS011;13066;52.042;5.648;2023-08-17T09:09:23;9.18;;;3.13;;
25073;SDS011;13066;52.042;5.648;2023-08-17T09:11:55;5.38;;;2.30;;
25073;SDS011;13066;52.042;5.648;2023-08-17T09:14:23;6.38;;;2.70;;
25073;SDS011;13066;52.042;5.648;2023-08-17T09:16:51;9.18;;;2.80;;
25073;SDS011;13066;52.042;5.648;2023-08-17T09:19:19;11.35;;;2.63;;
25073;SDS011;13066;52.042;5.648;2023-08-17T09:21:49;8.75;;;2.60;;
25073;SDS011;13066;52.042;5.648;2023-08-17T09:24:17;11.50;;;3.30;;
25073;SDS011;13066;52.042;5.648;2023-08-17T09:26:45;7.75;;;2.80;;
25073;SDS011;13066;52.042;5.648;2023-08-17T09:29:16;9.90;;;3.20;;
25073;SDS011;13066;52.042;5.648;2023-08-17T09:31:45;11.82;;;3.75;;
25073;SDS011;13066;52.042;5.648;2023-08-17T09:34:14;7.43;;;2.90;;
25073;SDS011;13066;52.042;5.648;2023-08-17T09:36:42;9.80;;;3.13;;
25073;SDS011;13066;52.042;5.648;2023-08-17T09:39:16;9.10;;;3.00;;
25073;SDS011;13066;52.042;5.648;2023-08-17T09:41:45;11.27;;;3.25;;
25073;SDS011;13066;52.042;5.648;2023-08-17T09:44:13;7.97;;;3.00;;
25073;SDS011;13066;52.042;5.648;2023-08-17T09:46:44;8.43;;;3.50;;
25073;SDS011;13066;52.042;5.648;2023-08-17T09:49:12;9.88;;;4.00;;
25073;SDS011;13066;52.042;5.648;2023-08-17T09:51:41;13.63;;;4.22;;
25073;SDS011;13066;52.042;5.648;2023-08-17T09:54:18;14.85;;;4.40;;
25073;SDS011;13066;52.042;5.648;2023-08-17T09:56:48;10.60;;;4.07;;
25073;SDS011;13066;52.042;5.648;2023-08-17T09:59:17;8.65;;;3.85;;
25073;SDS011;13066;52.042;5.648;2023-08-17T10:01:47;10.60;;;4.32;;
25073;SDS011;13066;52.042;5.648;2023-08-17T10:04:22;9.65;;;4.70;;
25073;SDS011;13066;52.042;5.648;2023-08-17T10:06:53;13.43;;;4.13;;
25073;SDS011;13066;52.042;5.648;2023-08-17T10:09:28;11.60;;;4.63;;
25073;SDS011;13066;52.042;5.648;2023-08-17T10:11:58;8.45;;;4.10;;
25073;SDS011;13066;52.042;5.648;2023-08-17T10:14:31;11.27;;;5.22;;
25073;SDS011;13066;52.042;5.648;2023-08-17T10:17:05;11.23;;;4.05;;
25073;SDS011;13066;52.042;5.648;2023-08-17T10:19:37;10.80;;;4.95;;
25073;SDS011;13066;52.042;5.648;2023-08-17T10:22:12;15.88;;;5.80;;
25073;SDS011;13066;52.042;5.648;2023-08-17T10:24:46;9.65;;;4.38;;
25073;SDS011;13066;52.042;5.648;2023-08-17T10:27:15;10.57;;;4.03;;
25073;SDS011;13066;52.042;5.648;2023-08-17T10:29:43;13.93;;;4.47;;
25073;SDS011;13066;52.042;5.648;2023-08-17T10:32:12;10.00;;;4.65;;
25073;SDS011;13066;52.042;5.648;2023-08-17T10:34:47;11.10;;;4.82;;
25073;SDS011;13066;52.042;5.648;2023-08-17T10:37:16;11.35;;;4.80;;
25073;SDS011;13066;52.042;5.648;2023-08-17T10:39:45;8.48;;;4.32;;
25073;SDS011;13066;52.042;5.648;2023-08-17T10:42:14;15.10;;;5.15;;
25073;SDS011;13066;52.042;5.648;2023-08-17T10:44:46;12.10;;;4.95;;
25073;SDS011;13066;52.042;5.648;2023-08-17T10:47:18;14.48;;;5.53;;
25073;SDS011;13066;52.042;5.648;2023-08-17T10:49:47;12.65;;;5.10;;
25073;SDS011;13066;52.042;5.648;2023-08-17T10:52:24;8.82;;;4.88;;
25073;SDS011;13066;52.042;5.648;2023-08-17T10:54:58;16.65;;;4.78;;
25073;SDS011;13066;52.042;5.648;2023-08-17T10:57:33;8.52;;;4.70;;
25073;SDS011;13066;52.042;5.648;2023-08-17T11:00:16;15.15;;;4.85;;
25073;SDS011;13066;52.042;5.648;2023-08-17T11:02:51;8.63;;;5.00;;
25073;SDS011;13066;52.042;5.648;2023-08-17T11:05:40;13.68;;;4.97;;
25073;SDS011;13066;52.042;5.648;2023-08-17T11:08:10;9.80;;;4.35;;
25073;SDS011;13066;52.042;5.648;2023-08-17T11:10:44;11.93;;;4.93;;
25073;SDS011;13066;52.042;5.648;2023-08-17T11:15:43;14.98;;;5.03;;
25073;SDS011;13066;52.042;5.648;2023-08-17T11:18:11;13.32;;;4.95;;
25073;SDS011;13066;52.042;5.648;2023-08-17T11:20:40;18.55;;;5.72;;
25073;SDS011;13066;52.042;5.648;2023-08-17T11:23:09;13.60;;;4.70;;
25073;SDS011;13066;52.042;5.648;2023-08-17T11:25:37;15.32;;;5.20;;
25073;SDS011;13066;52.042;5.648;2023-08-17T11:28:07;11.40;;;4.80;;
25073;SDS011;13066;52.042;5.648;2023-08-17T11:30:36;10.20;;;4.43;;
25073;SDS011;13066;52.042;5.648;2023-08-17T11:33:06;12.27;;;4.53;;
25073;SDS011;13066;52.042;5.648;2023-08-17T11:35:34;14.60;;;4.82;;
25073;SDS011;13066;52.042;5.648;2023-08-17T11:38:03;12.23;;;5.10;;
25073;SDS011;13066;52.042;5.648;2023-08-17T11:40:34;13.88;;;4.88;;
25073;SDS011;13066;52.042;5.648;2023-08-17T11:43:03;10.13;;;4.40;;
25073;SDS011;13066;52.042;5.648;2023-08-17T11:45:33;12.80;;;4.50;;
25073;SDS011;13066;52.042;5.648;2023-08-17T11:48:01;12.98;;;5.13;;
25073;SDS011;13066;52.042;5.648;2023-08-17T11:50:30;8.95;;;4.75;;
25073;SDS011;13066;52.042;5.648;2023-08-17T11:52:59;11.15;;;4.85;;
25073;SDS011;13066;52.042;5.648;2023-08-17T11:55:27;11.35;;;5.18;;
25073;SDS011;13066;52.042;5.648;2023-08-17T11:57:55;12.25;;;4.60;;
25073;SDS011;13066;52.042;5.648;2023-08-17T12:00:23;11.30;;;4.53;;
25073;SDS011;13066;52.042;5.648;2023-08-17T12:02:55;11.43;;;4.50;;
25073;SDS011;13066;52.042;5.648;2023-08-17T12:05:24;11.70;;;4.53;;
25073;SDS011;13066;52.042;5.648;2023-08-17T12:07:55;9.15;;;4.47;;
25073;SDS011;13066;52.042;5.648;2023-08-17T12:10:23;13.48;;;4.13;;
25073;SDS011;13066;52.042;5.648;2023-08-17T12:12:51;8.85;;;3.88;;
25073;SDS011;13066;52.042;5.648;2023-08-17T12:15:19;9.70;;;4.10;;
25073;SDS011;13066;52.042;5.648;2023-08-17T12:17:48;14.55;;;4.50;;
25073;SDS011;13066;52.042;5.648;2023-08-17T12:20:20;10.98;;;4.32;;
25073;SDS011;13066;52.042;5.648;2023-08-17T12:22:49;11.52;;;4.05;;
25073;SDS011;13066;52.042;5.648;2023-08-17T12:25:17;11.32;;;3.63;;
25073;SDS011;13066;52.042;5.648;2023-08-17T12:27:48;12.65;;;4.25;;
25073;SDS011;13066;52.042;5.648;2023-08-17T12:30:24;12.40;;;3.97;;
25073;SDS011;13066;52.042;5.648;2023-08-17T12:32:53;10.65;;;3.78;;
25073;SDS011;13066;52.042;5.648;2023-08-17T12:35:25;8.77;;;3.90;;
25073;SDS011;13066;52.042;5.648;2023-08-17T12:37:53;11.63;;;3.70;;
25073;SDS011;13066;52.042;5.648;2023-08-17T12:40:22;11.82;;;4.25;;
25073;SDS011;13066;52.042;5.648;2023-08-17T12:42:50;7.70;;;3.38;;
25073;SDS011;13066;52.042;5.648;2023-08-17T12:45:18;9.18;;;3.67;;
25073;SDS011;13066;52.042;5.648;2023-08-17T12:47:46;9.50;;;3.92;;
25073;SDS011;13066;52.042;5.648;2023-08-17T12:50:14;7.95;;;4.30;;
25073;SDS011;13066;52.042;5.648;2023-08-17T12:52:45;12.60;;;4.47;;
25073;SDS011;13066;52.042;5.648;2023-08-17T12:55:13;10.95;;;4.15;;
25073;SDS011;13066;52.042;5.648;2023-08-17T12:57:41;9.68;;;3.95;;
25073;SDS011;13066;52.042;5.648;2023-08-17T13:00:09;10.70;;;3.67;;
25073;SDS011;13066;52.042;5.648;2023-08-17T13:02:38;7.85;;;4.10;;
25073;SDS011;13066;52.042;5.648;2023-08-17T13:05:06;10.25;;;4.07;;
25073;SDS011;13066;52.042;5.648;2023-08-17T13:07:34;9.65;;;3.72;;
25073;SDS011;13066;52.042;5.648;2023-08-17T13:10:04;16.10;;;4.32;;
25073;SDS011;13066;52.042;5.648;2023-08-17T13:12:33;12.18;;;4.43;;
25073;SDS011;13066;52.042;5.648;2023-08-17T13:15:01;8.98;;;4.00;;
25073;SDS011;13066;52.042;5.648;2023-08-17T13:17:29;8.80;;;4.30;;
25073;SDS011;13066;52.042;5.648;2023-08-17T13:19:57;11.15;;;4.25;;
25073;SDS011;13066;52.042;5.648;2023-08-17T13:22:25;8.13;;;4.30;;
25073;SDS011;13066;52.042;5.648;2023-08-17T13:24:53;9.38;;;3.90;;
25073;SDS011;13066;52.042;5.648;2023-08-17T13:27:23;15.07;;;4.30;;
25073;SDS011;13066;52.042;5.648;2023-08-17T13:29:51;10.02;;;4.00;;
25073;SDS011;13066;52.042;5.648;2023-08-17T13:32:18;6.45;;;4.00;;
25073;SDS011;13066;52.042;5.648;2023-08-17T13:34:46;5.95;;;3.83;;
25073;SDS011;13066;52.042;5.648;2023-08-17T13:37:14;9.45;;;4.15;;
25073;SDS011;13066;52.042;5.648;2023-08-17T13:39:42;9.18;;;4.40;;
25073;SDS011;13066;52.042;5.648;2023-08-17T13:42:10;7.35;;;4.47;;
25073;SDS011;13066;52.042;5.648;2023-08-17T13:44:40;11.70;;;3.90;;
25073;SDS011;13066;52.042;5.648;2023-08-17T13:47:07;8.50;;;4.32;;
25073;SDS011;13066;52.042;5.648;2023-08-17T13:49:35;7.63;;;4.80;;
25073;SDS011;13066;52.042;5.648;2023-08-17T13:52:04;10.25;;;4.25;;
25073;SDS011;13066;52.042;5.648;2023-08-17T13:54:32;8.60;;;4.35;;
25073;SDS011;13066;52.042;5.648;2023-08-17T13:57:00;8.88;;;4.10;;
25073;SDS011;13066;52.042;5.648;2023-08-17T13:59:28;8.85;;;4.50;;
25073;SDS011;13066;52.042;5.648;2023-08-17T14:01:57;9.23;;;4.90;;
25073;SDS011;13066;52.042;5.648;2023-08-17T14:04:25;12.55;;;4.90;;
25073;SDS011;13066;52.042;5.648;2023-08-17T14:06:53;8.13;;;4.35;;
25073;SDS011;13066;52.042;5.648;2023-08-17T14:09:21;7.88;;;4.45;;
25073;SDS011;13066;52.042;5.648;2023-08-17T14:11:49;7.65;;;4.80;;
25073;SDS011;13066;52.042;5.648;2023-08-17T14:14:18;8.63;;;4.55;;
25073;SDS011;13066;52.042;5.648;2023-08-17T14:16:46;9.95;;;4.50;;
25073;SDS011;13066;52.042;5.648;2023-08-17T14:19:15;8.93;;;4.43;;
25073;SDS011;13066;52.042;5.648;2023-08-17T14:21:43;7.97;;;4.75;;
25073;SDS011;13066;52.042;5.648;2023-08-17T14:24:10;11.77;;;4.50;;
25073;SDS011;13066;52.042;5.648;2023-08-17T14:26:38;7.20;;;4.45;;
25073;SDS011;13066;52.042;5.648;2023-08-17T14:29:06;9.68;;;4.68;;
25073;SDS011;13066;52.042;5.648;2023-08-17T14:31:34;8.20;;;4.50;;
25073;SDS011;13066;52.042;5.648;2023-08-17T14:34:02;6.30;;;4.18;;
25073;SDS011;13066;52.042;5.648;2023-08-17T14:36:34;9.52;;;4.97;;
25073;SDS011;13066;52.042;5.648;2023-08-17T14:39:01;8.70;;;4.57;;
25073;SDS011;13066;52.042;5.648;2023-08-17T14:41:30;9.30;;;3.75;;
25073;SDS011;13066;52.042;5.648;2023-08-17T14:43:59;11.73;;;4.43;;
25073;SDS011;13066;52.042;5.648;2023-08-17T14:46:29;6.13;;;3.60;;
25073;SDS011;13066;52.042;5.648;2023-08-17T14:48:57;9.20;;;4.55;;
25073;SDS011;13066;52.042;5.648;2023-08-17T14:51:25;8.48;;;5.28;;
25073;SDS011;13066;52.042;5.648;2023-08-17T14:53:57;8.02;;;4.75;;
25073;SDS011;13066;52.042;5.648;2023-08-17T14:56:25;7.57;;;4.30;;